createdAt,value
2022-10-31T00:00:15.283Z,101384.13
2022-10-31T00:02:42.344Z,101376.91
2022-10-31T00:05:08.681Z,101383.41
2022-10-31T00:07:34.997Z,101386.91
2022-10-31T00:10:01.329Z,101381.91
2022-10-31T00:12:27.685Z,101386.91
2022-10-31T00:14:53.996Z,101386.19
2022-10-31T00:17:20.329Z,101377.53
2022-10-31T00:19:46.651Z,101381.91
2022-10-31T00:22:13.000Z,101390.47
2022-10-31T00:24:39.319Z,101400.59
2022-10-31T00:27:05.638Z,101399.84
2022-10-31T00:29:31.964Z,101401.22
2022-10-31T00:31:58.280Z,101403.38
2022-10-31T00:37:18.302Z,101410.53
2022-10-31T00:39:46.116Z,101408.41
2022-10-31T00:42:12.420Z,101412.03
2022-10-31T00:44:38.754Z,101410.53
2022-10-31T00:47:05.079Z,101415.56
2022-10-31T00:49:31.417Z,101415.56
2022-10-31T00:51:57.742Z,101422.06
2022-10-31T00:54:24.072Z,101426.31
2022-10-31T00:56:50.442Z,101425.59
2022-10-31T00:59:16.845Z,101432.00
2022-10-31T01:01:43.280Z,101430.63
2022-10-31T01:04:09.696Z,101431.25
2022-10-31T01:06:36.021Z,101432.00
2022-10-31T01:09:02.360Z,101433.41
2022-10-31T01:11:28.681Z,101435.53
2022-10-31T01:13:55.051Z,101434.88
2022-10-31T01:16:22.390Z,101431.91
2022-10-31T01:18:50.054Z,101434.13
2022-10-31T01:21:23.250Z,101431.91
2022-10-31T01:23:49.788Z,101431.91
2022-10-31T01:26:16.887Z,101433.28
2022-10-31T01:28:50.255Z,101433.28
2022-10-31T01:31:16.905Z,101434.69
2022-10-31T01:33:43.255Z,101434.69
2022-10-31T01:36:13.451Z,101434.69
2022-10-31T01:38:39.783Z,101434.69
2022-10-31T01:41:06.361Z,101443.34
2022-10-31T01:43:49.771Z,101438.94
2022-10-31T01:46:16.748Z,101451.88
2022-10-31T01:48:43.608Z,101443.97
2022-10-31T01:51:10.293Z,101443.22
2022-10-31T01:53:36.616Z,101430.31
2022-10-31T01:56:02.940Z,101438.94
2022-10-31T01:58:30.556Z,101446.13
2022-10-31T02:01:00.525Z,101448.25
2022-10-31T02:03:29.739Z,101446.00
2022-10-31T02:05:56.884Z,101440.25
2022-10-31T02:08:27.413Z,101443.66
2022-10-31T02:10:53.746Z,101445.69
2022-10-31T02:13:20.179Z,101447.19
2022-10-31T02:15:50.159Z,101441.63
2022-10-31T02:18:16.484Z,101441.63
2022-10-31T02:20:49.664Z,101441.63
2022-10-31T02:23:15.921Z,101444.31
2022-10-31T02:26:05.432Z,101452.13
2022-10-31T02:28:35.921Z,101445.59
2022-10-31T02:31:06.683Z,101449.88
2022-10-31T02:33:36.523Z,101445.47
2022-10-31T02:36:04.032Z,101455.63
2022-10-31T02:38:43.914Z,101449.97
2022-10-31T02:41:20.568Z,101469.31
2022-10-31T02:43:59.412Z,101465.66
2022-10-31T02:46:27.820Z,101464.19
2022-10-31T02:48:54.173Z,101461.94
2022-10-31T02:51:20.502Z,101464.19
2022-10-31T02:53:47.943Z,101464.38
2022-10-31T02:56:17.851Z,101470.88
2022-10-31T02:59:05.444Z,101471.41
2022-10-31T03:01:40.442Z,101466.94
2022-10-31T03:04:18.532Z,101470.56
2022-10-31T03:06:56.443Z,101471.97
2022-10-31T03:09:24.308Z,101475.69
2022-10-31T03:12:08.866Z,101472.09
2022-10-31T03:14:48.456Z,101471.34
2022-10-31T03:17:17.460Z,101474.84
2022-10-31T03:19:44.891Z,101482.00
2022-10-31T03:22:15.556Z,101481.25
2022-10-31T03:24:43.753Z,101489.25
2022-10-31T03:27:10.966Z,101497.78
2022-10-31T03:29:37.471Z,101502.09
2022-10-31T03:32:09.003Z,101498.66
2022-10-31T03:34:36.088Z,101498.75
2022-10-31T03:37:02.875Z,101499.50
2022-10-31T03:39:29.207Z,101503.03
2022-10-31T03:42:21.853Z,101500.22
2022-10-31T03:44:50.972Z,101506.97
2022-10-31T03:47:17.881Z,101512.09
2022-10-31T03:49:48.401Z,101506.44
2022-10-31T03:52:18.820Z,101512.19
2022-10-31T03:54:45.672Z,101510.78
2022-10-31T03:57:17.634Z,101520.94
2022-10-31T03:59:45.441Z,101515.94
2022-10-31T04:02:18.051Z,101519.44
2022-10-31T04:04:45.086Z,101521.47
2022-10-31T04:07:12.358Z,101524.25
2022-10-31T04:09:39.556Z,101519.25
2022-10-31T04:12:06.391Z,101525.19
2022-10-31T04:14:52.448Z,101520.94
2022-10-31T04:17:19.478Z,101526.09
2022-10-31T04:19:45.851Z,101518.81
2022-10-31T04:22:12.689Z,101524.47
2022-10-31T04:24:39.447Z,101528.00
2022-10-31T04:27:05.863Z,101526.72
2022-10-31T04:29:32.616Z,101526.81
2022-10-31T04:31:58.990Z,101529.81
2022-10-31T04:34:25.801Z,101531.84
2022-10-31T04:36:52.187Z,101532.69
2022-10-31T04:39:22.646Z,101528.19
2022-10-31T04:42:18.193Z,101530.97
2022-10-31T04:44:44.537Z,101530.22
2022-10-31T04:47:10.915Z,101536.72
2022-10-31T04:49:37.265Z,101530.97
2022-10-31T04:52:03.681Z,101538.88
2022-10-31T04:54:30.546Z,101536.00
2022-10-31T04:57:41.060Z,101532.38
2022-10-31T05:00:07.678Z,101532.25
2022-10-31T05:02:34.516Z,101534.50
2022-10-31T05:05:00.946Z,101542.50
2022-10-31T05:07:27.304Z,101537.50
2022-10-31T05:09:54.380Z,101541.97
2022-10-31T05:12:20.730Z,101544.22
2022-10-31T05:15:09.735Z,101551.69
2022-10-31T05:18:02.693Z,101548.06
2022-10-31T05:20:47.901Z,101541.22
2022-10-31T05:23:25.445Z,101541.22
2022-10-31T05:25:51.778Z,101547.00
2022-10-31T05:28:18.268Z,101544.84
2022-10-31T05:30:44.656Z,101555.66
2022-10-31T05:33:14.552Z,101554.25
2022-10-31T05:35:40.886Z,101552.75
2022-10-31T05:38:27.213Z,101554.78
2022-10-31T05:40:58.544Z,101549.78
2022-10-31T05:43:25.532Z,101550.50
2022-10-31T05:45:55.513Z,101545.50
2022-10-31T05:48:40.461Z,101552.03
2022-10-31T05:51:25.381Z,101555.53
2022-10-31T05:53:51.758Z,101551.25
2022-10-31T05:56:21.879Z,101559.91
2022-10-31T05:58:49.477Z,101558.53
2022-10-31T06:01:15.890Z,101576.88
2022-10-31T06:03:44.808Z,101568.97
2022-10-31T06:06:15.250Z,101579.91
2022-10-31T06:08:41.586Z,101572.56
2022-10-31T06:11:13.952Z,101565.47
2022-10-31T06:13:58.672Z,101572.81
2022-10-31T06:16:32.281Z,101581.38
2022-10-31T06:19:08.745Z,101582.75
2022-10-31T06:21:35.132Z,101588.63
2022-10-31T06:24:01.542Z,101582.22
2022-10-31T06:26:46.283Z,101587.34
2022-10-31T06:29:13.419Z,101578.59
2022-10-31T06:31:58.218Z,101591.59
2022-10-31T06:34:24.591Z,101591.59
2022-10-31T06:36:50.912Z,101594.47
2022-10-31T06:39:20.805Z,101597.38
2022-10-31T06:41:48.274Z,101600.13
2022-10-31T06:44:16.484Z,101602.50
2022-10-31T06:46:54.632Z,101606.84
2022-10-31T06:49:37.260Z,101613.41
2022-10-31T06:52:12.418Z,101611.09
2022-10-31T06:54:38.806Z,101613.19
2022-10-31T06:57:05.144Z,101617.66
2022-10-31T06:59:31.896Z,101626.09
2022-10-31T07:02:14.678Z,101621.25
2022-10-31T07:04:42.933Z,101625.22
2022-10-31T07:07:12.743Z,101629.63
2022-10-31T07:09:39.575Z,101621.25
2022-10-31T07:12:07.229Z,101631.63
2022-10-31T07:14:37.725Z,101625.78
2022-10-31T07:17:04.053Z,101640.38
2022-10-31T07:19:37.450Z,101631.06
2022-10-31T07:22:03.787Z,101626.78
2022-10-31T07:24:31.364Z,101625.59
2022-10-31T07:27:23.727Z,101626.34
2022-10-31T07:29:50.050Z,101625.97
2022-10-31T07:32:16.924Z,101626.84
2022-10-31T07:34:50.477Z,101635.31
2022-10-31T07:37:20.482Z,101639.25
2022-10-31T07:39:47.942Z,101640.50
2022-10-31T07:42:14.297Z,101645.75
2022-10-31T07:44:44.130Z,101653.78
2022-10-31T07:47:45.939Z,101643.50
2022-10-31T07:50:40.991Z,101647.75
2022-10-31T07:53:36.052Z,101648.50
2022-10-31T07:56:18.143Z,101640.50
2022-10-31T07:58:44.661Z,101649.28
2022-10-31T08:03:50.641Z,101653.19
2022-10-31T08:06:35.494Z,101674.16
2022-10-31T08:09:16.308Z,101677.78
2022-10-31T08:11:44.497Z,101674.81
2022-10-31T08:14:10.835Z,101668.69
2022-10-31T08:16:37.172Z,101670.22
2022-10-31T08:19:05.681Z,101674.25
2022-10-31T08:21:37.179Z,101667.13
2022-10-31T08:24:03.612Z,101658.88
2022-10-31T08:26:30.010Z,101658.13
2022-10-31T08:28:56.687Z,101658.19
2022-10-31T08:31:32.982Z,101663.50
2022-10-31T08:34:18.813Z,101664.59
2022-10-31T08:37:05.113Z,101665.31
2022-10-31T08:39:39.864Z,101670.09
2022-10-31T08:42:06.242Z,101662.78
2022-10-31T08:44:32.595Z,101668.53
2022-10-31T08:46:58.930Z,101669.66
2022-10-31T08:49:25.288Z,101675.25
2022-10-31T08:51:52.066Z,101670.22
2022-10-31T08:54:20.579Z,101670.78
2022-10-31T08:56:49.571Z,101676.56
2022-10-31T08:59:29.458Z,101675.38
2022-10-31T09:02:14.353Z,101680.09
2022-10-31T09:04:40.733Z,101682.28
2022-10-31T09:07:22.487Z,101680.81
2022-10-31T09:09:48.815Z,101683.81
2022-10-31T09:12:15.161Z,101677.13
2022-10-31T09:15:07.747Z,101682.28
2022-10-31T09:17:48.686Z,101679.72
2022-10-31T09:20:30.576Z,101686.75
2022-10-31T09:22:58.383Z,101673.31
2022-10-31T09:25:24.755Z,101677.84
2022-10-31T09:28:05.382Z,101680.94
2022-10-31T09:30:32.513Z,101686.72
2022-10-31T09:32:59.649Z,101699.50
2022-10-31T09:35:26.145Z,101691.63
2022-10-31T09:37:55.844Z,101698.81
2022-10-31T09:40:22.295Z,101699.47
2022-10-31T09:42:52.345Z,101700.03
2022-10-31T09:45:26.227Z,101690.53
2022-10-31T09:48:08.864Z,101701.84
2022-10-31T09:50:44.384Z,101701.28
2022-10-31T09:53:38.735Z,101704.38
2022-10-31T09:56:07.255Z,101706.06
2022-10-31T09:58:36.715Z,101702.63
2022-10-31T10:01:04.763Z,101695.75
2022-10-31T10:03:36.193Z,101691.25
2022-10-31T10:06:16.158Z,101695.22
2022-10-31T10:09:17.666Z,101690.91
2022-10-31T10:12:15.835Z,101695.53
2022-10-31T10:14:45.759Z,101699.81
2022-10-31T10:17:24.109Z,101694.78
2022-10-31T10:19:54.554Z,101690.28
2022-10-31T10:22:30.197Z,101688.59
2022-10-31T10:25:11.855Z,101683.69
2022-10-31T10:27:57.131Z,101679.31
2022-10-31T10:30:24.577Z,101679.31
2022-10-31T10:33:04.056Z,101680.72
2022-10-31T10:35:31.373Z,101685.69
2022-10-31T10:38:16.114Z,101683.91
2022-10-31T10:40:42.447Z,101689.84
2022-10-31T10:43:22.993Z,101684.41
2022-10-31T10:46:27.007Z,101679.03
2022-10-31T10:48:56.087Z,101680.41
2022-10-31T10:51:47.046Z,101677.06
2022-10-31T10:54:14.675Z,101674.69
2022-10-31T10:56:43.374Z,101668.25
2022-10-31T10:59:10.811Z,101668.00
2022-10-31T11:01:37.127Z,101674.97
2022-10-31T11:04:03.628Z,101674.97
2022-10-31T11:06:30.013Z,101669.56
2022-10-31T11:08:56.338Z,101667.34
2022-10-31T11:11:26.716Z,101676.53
2022-10-31T11:14:13.234Z,101670.66
2022-10-31T11:16:41.537Z,101669.50
2022-10-31T11:19:15.914Z,101671.34
2022-10-31T11:21:42.243Z,101666.53
2022-10-31T11:24:11.346Z,101671.19
2022-10-31T11:26:41.346Z,101672.19
2022-10-31T11:29:13.548Z,101672.38
2022-10-31T11:31:39.868Z,101676.09
2022-10-31T11:34:07.282Z,101668.28
2022-10-31T11:36:34.597Z,101668.28
2022-10-31T11:39:01.028Z,101669.97
2022-10-31T11:41:28.773Z,101664.56
2022-10-31T11:43:58.869Z,101662.41
2022-10-31T11:46:34.127Z,101661.75
2022-10-31T11:49:00.455Z,101665.81
2022-10-31T11:51:28.855Z,101663.72
2022-10-31T11:53:59.833Z,101658.00
2022-10-31T11:56:29.486Z,101661.00
2022-10-31T11:58:57.022Z,101661.19
2022-10-31T12:01:27.121Z,101658.66
2022-10-31T12:04:07.888Z,101658.28
2022-10-31T12:06:35.065Z,101654.03
2022-10-31T12:09:01.421Z,101658.25
2022-10-31T12:11:46.279Z,101647.66
2022-10-31T12:14:38.749Z,101650.03
2022-10-31T12:17:07.521Z,101642.06
2022-10-31T12:19:36.890Z,101640.53
2022-10-31T12:22:21.352Z,101635.19
2022-10-31T12:24:53.747Z,101644.09
2022-10-31T12:27:23.957Z,101635.25
2022-10-31T12:29:59.397Z,101639.97
2022-10-31T12:32:41.058Z,101638.75
2022-10-31T12:35:25.797Z,101644.91
2022-10-31T12:37:52.066Z,101644.06
2022-10-31T12:40:30.699Z,101637.44
2022-10-31T12:43:00.500Z,101629.53
2022-10-31T12:45:45.922Z,101631.00
2022-10-31T12:48:12.295Z,101623.50
2022-10-31T12:50:41.798Z,101624.41
2022-10-31T12:53:08.199Z,101624.50
2022-10-31T12:55:47.269Z,101626.78
2022-10-31T12:58:24.443Z,101614.19
2022-10-31T13:00:52.649Z,101619.44
2022-10-31T13:03:45.143Z,101605.84
2022-10-31T13:06:13.954Z,101612.25
2022-10-31T13:08:41.685Z,101615.72
2022-10-31T13:11:11.045Z,101613.38
2022-10-31T13:13:40.307Z,101617.44
2022-10-31T13:16:11.583Z,101623.00
2022-10-31T13:18:41.716Z,101614.78
2022-10-31T13:21:17.869Z,101616.66
2022-10-31T13:23:50.744Z,101612.94
2022-10-31T13:26:35.467Z,101613.41
2022-10-31T13:29:16.784Z,101614.16
2022-10-31T13:31:43.214Z,101603.94
2022-10-31T13:34:11.851Z,101603.97
2022-10-31T13:36:39.592Z,101607.50
2022-10-31T13:39:13.343Z,101601.34
2022-10-31T13:41:48.064Z,101602.63
2022-10-31T13:44:16.027Z,101605.31
2022-10-31T13:49:29.169Z,101593.66
2022-10-31T13:52:13.877Z,101590.66
2022-10-31T13:54:47.432Z,101587.69
2022-10-31T13:57:13.875Z,101580.06
2022-10-31T13:59:40.218Z,101582.53
2022-10-31T14:02:18.939Z,101577.84
2022-10-31T14:04:46.157Z,101581.53
2022-10-31T14:07:13.496Z,101585.53
2022-10-31T14:09:40.529Z,101580.34
2022-10-31T14:12:08.140Z,101571.88
2022-10-31T14:14:36.063Z,101574.84
2022-10-31T14:17:02.415Z,101576.53
2022-10-31T14:19:28.780Z,101573.53
2022-10-31T14:21:55.100Z,101582.06
2022-10-31T14:24:24.385Z,101571.28
2022-10-31T14:26:54.755Z,101561.69
2022-10-31T14:29:22.095Z,101558.63
2022-10-31T14:31:55.331Z,101560.41
2022-10-31T14:34:28.497Z,101553.13
2022-10-31T14:37:13.633Z,101558.91
2022-10-31T14:39:39.887Z,101550.72
2022-10-31T14:42:19.519Z,101557.09
2022-10-31T14:44:48.752Z,101552.44
2022-10-31T14:47:21.637Z,101552.25
2022-10-31T14:49:47.890Z,101548.06
2022-10-31T14:52:14.507Z,101555.81
2022-10-31T14:54:44.934Z,101552.25
2022-10-31T14:57:15.913Z,101551.78
2022-10-31T14:59:43.345Z,101557.72
2022-10-31T15:02:11.732Z,101541.34
2022-10-31T15:04:38.184Z,101545.63
2022-10-31T15:07:17.192Z,101552.34
2022-10-31T15:09:46.740Z,101548.81
2022-10-31T15:12:23.189Z,101545.34
2022-10-31T15:14:49.516Z,101542.75
2022-10-31T15:17:15.819Z,101538.81
2022-10-31T15:19:42.130Z,101537.06
2022-10-31T15:22:08.436Z,101540.13
2022-10-31T15:24:35.601Z,101529.59
2022-10-31T15:27:04.846Z,101525.31
2022-10-31T15:29:31.714Z,101523.25
2022-10-31T15:32:16.973Z,101529.22
2022-10-31T15:34:43.570Z,101528.38
2022-10-31T15:37:14.614Z,101528.09
2022-10-31T15:39:40.969Z,101528.56
2022-10-31T15:42:20.802Z,101524.75
2022-10-31T15:44:48.254Z,101520.78
2022-10-31T15:47:17.776Z,101510.47
2022-10-31T15:49:54.502Z,101518.31
2022-10-31T15:52:35.170Z,101521.25
2022-10-31T15:55:05.518Z,101518.94
2022-10-31T15:57:31.933Z,101516.88
2022-10-31T15:59:58.272Z,101518.03
2022-10-31T16:02:25.533Z,101518.94
2022-10-31T16:04:53.469Z,101525.47
2022-10-31T16:07:23.170Z,101520.50
2022-10-31T16:10:00.013Z,101525.50
2022-10-31T16:12:31.150Z,101518.06
2022-10-31T16:14:57.498Z,101519.72
2022-10-31T16:17:24.059Z,101521.66
2022-10-31T16:19:51.935Z,101516.53
2022-10-31T16:22:25.604Z,101512.63
2022-10-31T16:24:56.509Z,101518.31
2022-10-31T16:27:26.567Z,101516.94
2022-10-31T16:29:52.969Z,101522.41
2022-10-31T16:32:31.507Z,101517.47
2022-10-31T16:34:58.673Z,101515.59
2022-10-31T16:37:25.060Z,101512.16
2022-10-31T16:39:51.395Z,101509.09
2022-10-31T16:42:17.737Z,101513.41
2022-10-31T16:44:44.677Z,101509.72
2022-10-31T16:47:13.265Z,101513.19
2022-10-31T16:49:39.641Z,101504.69
2022-10-31T16:52:06.126Z,101514.31
2022-10-31T16:54:32.445Z,101507.97
2022-10-31T16:56:59.266Z,101507.56
2022-10-31T16:59:25.635Z,101500.91
2022-10-31T17:01:52.055Z,101501.06
2022-10-31T17:04:18.925Z,101504.88
2022-10-31T17:06:45.340Z,101508.59
2022-10-31T17:09:11.659Z,101499.94
2022-10-31T17:11:37.985Z,101503.44
2022-10-31T17:14:04.593Z,101493.94
2022-10-31T17:16:31.059Z,101503.22
2022-10-31T17:18:57.521Z,101497.69
2022-10-31T17:21:24.334Z,101498.50
2022-10-31T17:23:50.813Z,101493.00
2022-10-31T17:26:17.237Z,101491.84
2022-10-31T17:28:43.628Z,101491.13
2022-10-31T17:31:11.928Z,101494.09
2022-10-31T17:33:38.264Z,101487.38
2022-10-31T17:36:04.674Z,101479.97
2022-10-31T17:38:30.995Z,101476.63
2022-10-31T17:40:57.316Z,101483.13
2022-10-31T17:43:27.017Z,101476.06
2022-10-31T17:45:53.437Z,101480.34
2022-10-31T17:48:19.773Z,101488.69
2022-10-31T17:50:46.118Z,101488.69
2022-10-31T17:53:12.422Z,101483.53
2022-10-31T17:55:38.731Z,101480.94
2022-10-31T17:58:05.121Z,101478.53
2022-10-31T18:00:31.468Z,101479.44
2022-10-31T18:02:57.904Z,101481.84
2022-10-31T18:05:24.336Z,101482.44
2022-10-31T18:07:51.100Z,101476.66
2022-10-31T18:10:17.421Z,101464.34
2022-10-31T18:12:43.916Z,101463.03
2022-10-31T18:15:10.326Z,101468.69
2022-10-31T18:17:39.454Z,101471.38
2022-10-31T18:20:08.549Z,101472.91
2022-10-31T18:22:34.870Z,101467.59
2022-10-31T18:25:02.272Z,101465.47
2022-10-31T18:27:30.071Z,101466.09
2022-10-31T18:29:56.391Z,101455.59
2022-10-31T18:32:22.706Z,101464.34
2022-10-31T18:34:49.037Z,101459.94
2022-10-31T18:37:15.368Z,101461.56
2022-10-31T18:39:41.942Z,101457.25
2022-10-31T18:42:08.302Z,101459.94
2022-10-31T18:44:34.664Z,101457.56
2022-10-31T18:47:00.977Z,101462.09
2022-10-31T18:49:29.231Z,101461.91
2022-10-31T18:51:55.635Z,101452.41
2022-10-31T18:54:21.960Z,101458.53
2022-10-31T18:56:48.300Z,101456.56
2022-10-31T18:59:14.613Z,101452.66
2022-10-31T19:01:41.076Z,101450.72
2022-10-31T19:04:07.531Z,101456.91
2022-10-31T19:06:33.871Z,101445.38
2022-10-31T19:09:00.882Z,101454.78
2022-10-31T19:11:27.228Z,101453.16
2022-10-31T19:13:53.566Z,101435.16
2022-10-31T19:16:19.885Z,101439.28
2022-10-31T19:18:46.230Z,101434.63
2022-10-31T19:21:16.834Z,101427.22
2022-10-31T19:23:43.291Z,101425.13
2022-10-31T19:26:09.678Z,101421.56
2022-10-31T19:28:36.340Z,101411.91
2022-10-31T19:31:02.662Z,101412.75
2022-10-31T19:33:34.894Z,101416.31
2022-10-31T19:36:03.499Z,101414.78
2022-10-31T19:38:29.832Z,101406.25
2022-10-31T19:40:57.211Z,101409.25
2022-10-31T19:45:54.417Z,101398.28
2022-10-31T19:48:20.735Z,101390.47
2022-10-31T19:50:47.041Z,101389.91
2022-10-31T19:53:13.389Z,101383.41
2022-10-31T19:55:40.033Z,101381.91
2022-10-31T19:58:06.363Z,101386.38
2022-10-31T20:00:32.663Z,101384.81
2022-10-31T20:02:59.307Z,101389.25
2022-10-31T20:05:25.958Z,101382.09
2022-10-31T20:07:52.297Z,101375.06
2022-10-31T20:10:18.609Z,101383.41
2022-10-31T20:12:44.945Z,101372.81
2022-10-31T20:15:11.268Z,101372.06
2022-10-31T20:17:37.568Z,101376.34
2022-10-31T20:20:08.679Z,101374.94
2022-10-31T20:22:35.643Z,101367.59
2022-10-31T20:25:01.989Z,101373.38
2022-10-31T20:27:28.669Z,101368.97
2022-10-31T20:29:55.008Z,101367.69
2022-10-31T20:32:21.464Z,101366.50
2022-10-31T20:37:19.011Z,101356.44
2022-10-31T20:39:45.340Z,101354.97
2022-10-31T20:42:12.061Z,101356.34
2022-10-31T20:44:38.371Z,101344.72
2022-10-31T20:47:06.532Z,101349.75
2022-10-31T20:49:32.852Z,101343.97
2022-10-31T20:51:59.169Z,101350.59
2022-10-31T20:54:25.498Z,101349.22
2022-10-31T20:56:51.807Z,101345.66
2022-10-31T20:59:19.813Z,101344.19
2022-10-31T21:01:46.224Z,101340.66
2022-10-31T21:04:12.667Z,101341.72
2022-10-31T21:06:38.995Z,101335.97
2022-10-31T21:09:05.323Z,101342.50
2022-10-31T21:11:31.765Z,101336.53
2022-10-31T21:13:58.382Z,101325.75
2022-10-31T21:16:25.772Z,101325.75
2022-10-31T21:18:52.216Z,101319.34
2022-10-31T21:21:19.708Z,101319.44
2022-10-31T21:23:46.023Z,101318.13
2022-10-31T21:26:16.478Z,101314.59
2022-10-31T21:28:42.810Z,101320.47
2022-10-31T21:31:09.844Z,101321.84
2022-10-31T21:33:36.180Z,101310.03
2022-10-31T21:36:02.594Z,101301.38
2022-10-31T21:38:28.899Z,101305.75
2022-10-31T21:41:01.928Z,101302.97
2022-10-31T21:43:28.251Z,101304.34
2022-10-31T21:45:54.564Z,101299.91
2022-10-31T21:48:20.895Z,101297.13
2022-10-31T21:50:47.201Z,101288.38
2022-10-31T21:53:32.254Z,101284.16
2022-10-31T21:56:02.189Z,101287.06
2022-10-31T21:58:28.866Z,101286.22
2022-10-31T22:00:55.267Z,101289.94
2022-10-31T22:03:21.666Z,101286.97
2022-10-31T22:05:48.015Z,101284.75
2022-10-31T22:08:14.375Z,101295.59
2022-10-31T22:10:40.684Z,101289.84
2022-10-31T22:13:07.092Z,101287.81
2022-10-31T22:15:33.469Z,101289.84
2022-10-31T22:18:00.118Z,101279.06
2022-10-31T22:20:26.604Z,101283.34
2022-10-31T22:22:52.968Z,101279.81
2022-10-31T22:25:19.284Z,101272.53
2022-10-31T22:27:45.600Z,101279.06
2022-10-31T22:30:11.916Z,101276.09
2022-10-31T22:32:38.235Z,101263.81
2022-10-31T22:35:04.719Z,101259.63
2022-10-31T22:37:31.031Z,101262.41
2022-10-31T22:39:57.342Z,101249.47
2022-10-31T22:42:23.666Z,101241.50
2022-10-31T22:44:50.042Z,101240.75
2022-10-31T22:47:16.360Z,101239.25
2022-10-31T22:49:42.758Z,101238.31
2022-10-31T22:52:09.080Z,101230.31
2022-10-31T22:54:35.392Z,101223.06
2022-10-31T22:57:01.724Z,101208.66
2022-10-31T22:59:28.038Z,101219.47
2022-10-31T23:01:54.546Z,101207.16
2022-10-31T23:04:21.071Z,101205.03
2022-10-31T23:06:49.031Z,101211.53
2022-10-31T23:09:15.562Z,101215.81
2022-10-31T23:11:41.885Z,101214.34
2022-10-31T23:14:10.439Z,101208.56
2022-10-31T23:16:38.343Z,101204.56
2022-10-31T23:19:08.008Z,101200.13
2022-10-31T23:21:54.303Z,101200.22
2022-10-31T23:24:24.040Z,101200.22
2022-10-31T23:27:09.085Z,101200.13
2022-10-31T23:29:35.333Z,101196.50
2022-10-31T23:32:01.960Z,101190.06
2022-10-31T23:34:28.301Z,101174.19
2022-10-31T23:36:54.725Z,101164.03
2022-10-31T23:39:24.218Z,101168.41
2022-10-31T23:41:51.528Z,101164.69
2022-10-31T23:44:17.847Z,101175.66
2022-10-31T23:46:44.181Z,101172.66
2022-10-31T23:49:10.505Z,101161.22
2022-10-31T23:51:36.813Z,101152.59
2022-10-31T23:54:03.151Z,101140.31
2022-10-31T23:56:29.513Z,101118.56
2022-10-31T23:58:55.871Z,101110.56
